sensor_id;sensor_type;location;lat;lon;timestamp;temperature;humidity
23371;DHT22;11858;51.056;3.712;2023-08-07T00:00:12;13.40;99.90
23371;DHT22;11858;51.056;3.712;2023-08-07T00:02:38;13.40;99.90
23371;DHT22;11858;51.056;3.712;2023-08-07T00:05:05;13.30;99.90
23371;DHT22;11858;51.056;3.712;2023-08-07T00:07:31;13.20;99.90
23371;DHT22;11858;51.056;3.712;2023-08-07T00:09:56;13.10;99.90
23371;DHT22;11858;51.056;3.712;2023-08-07T00:12:22;13.10;99.90
23371;DHT22;11858;51.056;3.712;2023-08-07T00:14:50;13.10;99.90
23371;DHT22;11858;51.056;3.712;2023-08-07T00:17:16;13.10;99.90
23371;DHT22;11858;51.056;3.712;2023-08-07T00:19:42;13.10;99.90
23371;DHT22;11858;51.056;3.712;2023-08-07T00:22:07;13.00;99.90
23371;DHT22;11858;51.056;3.712;2023-08-07T00:24:33;13.10;99.90
23371;DHT22;11858;51.056;3.712;2023-08-07T00:26:59;13.10;99.90
23371;DHT22;11858;51.056;3.712;2023-08-07T00:29:24;13.00;99.90
23371;DHT22;11858;51.056;3.712;2023-08-07T00:31:50;13.20;99.90
23371;DHT22;11858;51.056;3.712;2023-08-07T00:34:16;13.10;99.90
23371;DHT22;11858;51.056;3.712;2023-08-07T00:36:41;13.20;99.90
23371;DHT22;11858;51.056;3.712;2023-08-07T00:39:07;13.20;99.90
23371;DHT22;11858;51.056;3.712;2023-08-07T00:41:33;13.10;99.90
23371;DHT22;11858;51.056;3.712;2023-08-07T00:43:59;13.00;99.90
23371;DHT22;11858;51.056;3.712;2023-08-07T00:46:26;12.90;99.90
23371;DHT22;11858;51.056;3.712;2023-08-07T00:48:52;12.70;99.90
23371;DHT22;11858;51.056;3.712;2023-08-07T00:51:19;12.60;99.90
23371;DHT22;11858;51.056;3.712;2023-08-07T00:53:45;12.70;99.90
23371;DHT22;11858;51.056;3.712;2023-08-07T00:56:12;12.80;99.90
23371;DHT22;11858;51.056;3.712;2023-08-07T00:58:38;12.90;99.90
23371;DHT22;11858;51.056;3.712;2023-08-07T01:01:05;12.80;99.90
23371;DHT22;11858;51.056;3.712;2023-08-07T01:03:31;12.80;99.90
23371;DHT22;11858;51.056;3.712;2023-08-07T01:05:56;12.80;99.90
23371;DHT22;11858;51.056;3.712;2023-08-07T01:08:26;12.80;99.90
23371;DHT22;11858;51.056;3.712;2023-08-07T01:11:07;12.80;99.90
23371;DHT22;11858;51.056;3.712;2023-08-07T01:13:38;12.80;99.90
23371;DHT22;11858;51.056;3.712;2023-08-07T01:16:19;12.90;99.90
23371;DHT22;11858;51.056;3.712;2023-08-07T01:18:47;12.90;99.90
23371;DHT22;11858;51.056;3.712;2023-08-07T01:21:21;12.80;99.90
23371;DHT22;11858;51.056;3.712;2023-08-07T01:23:47;12.80;99.90
23371;DHT22;11858;51.056;3.712;2023-08-07T01:26:15;12.70;99.90
23371;DHT22;11858;51.056;3.712;2023-08-07T01:28:46;12.70;99.90
23371;DHT22;11858;51.056;3.712;2023-08-07T01:31:14;12.60;99.90
23371;DHT22;11858;51.056;3.712;2023-08-07T01:34:02;12.50;99.90
23371;DHT22;11858;51.056;3.712;2023-08-07T01:36:29;12.50;99.90
23371;DHT22;11858;51.056;3.712;2023-08-07T01:38:57;12.50;99.90
23371;DHT22;11858;51.056;3.712;2023-08-07T01:41:24;12.50;99.90
23371;DHT22;11858;51.056;3.712;2023-08-07T01:43:50;12.60;99.90
23371;DHT22;11858;51.056;3.712;2023-08-07T01:46:17;12.70;99.90
23371;DHT22;11858;51.056;3.712;2023-08-07T01:48:42;12.70;99.90
23371;DHT22;11858;51.056;3.712;2023-08-07T01:51:08;12.80;99.90
23371;DHT22;11858;51.056;3.712;2023-08-07T01:53:34;12.90;99.90
23371;DHT22;11858;51.056;3.712;2023-08-07T01:55:59;13.00;99.90
23371;DHT22;11858;51.056;3.712;2023-08-07T01:58:25;12.90;99.90
23371;DHT22;11858;51.056;3.712;2023-08-07T02:00:51;12.80;99.90
23371;DHT22;11858;51.056;3.712;2023-08-07T02:03:17;12.70;99.90
23371;DHT22;11858;51.056;3.712;2023-08-07T02:05:45;12.60;99.90
23371;DHT22;11858;51.056;3.712;2023-08-07T02:08:11;12.70;99.90
23371;DHT22;11858;51.056;3.712;2023-08-07T02:10:37;12.80;99.90
23371;DHT22;11858;51.056;3.712;2023-08-07T02:13:03;12.80;99.90
23371;DHT22;11858;51.056;3.712;2023-08-07T02:15:28;12.70;99.90
23371;DHT22;11858;51.056;3.712;2023-08-07T02:17:54;12.80;99.90
23371;DHT22;11858;51.056;3.712;2023-08-07T02:20:20;12.80;99.90
23371;DHT22;11858;51.056;3.712;2023-08-07T02:22:45;12.80;99.90
23371;DHT22;11858;51.056;3.712;2023-08-07T02:25:11;12.80;99.90
23371;DHT22;11858;51.056;3.712;2023-08-07T02:27:37;12.70;99.90
23371;DHT22;11858;51.056;3.712;2023-08-07T02:30:02;12.80;99.90
23371;DHT22;11858;51.056;3.712;2023-08-07T02:32:29;12.80;99.90
23371;DHT22;11858;51.056;3.712;2023-08-07T02:34:55;12.90;99.90
23371;DHT22;11858;51.056;3.712;2023-08-07T02:37:21;12.80;99.90
23371;DHT22;11858;51.056;3.712;2023-08-07T02:39:47;12.80;99.90
23371;DHT22;11858;51.056;3.712;2023-08-07T02:42:12;12.80;99.90
23371;DHT22;11858;51.056;3.712;2023-08-07T02:44:38;12.90;99.90
23371;DHT22;11858;51.056;3.712;2023-08-07T02:47:04;12.80;99.90
23371;DHT22;11858;51.056;3.712;2023-08-07T02:49:29;12.80;99.90
23371;DHT22;11858;51.056;3.712;2023-08-07T02:51:55;12.80;99.90
23371;DHT22;11858;51.056;3.712;2023-08-07T02:54:21;12.80;99.90
23371;DHT22;11858;51.056;3.712;2023-08-07T02:56:46;12.80;99.90
23371;DHT22;11858;51.056;3.712;2023-08-07T02:59:14;12.80;99.90
23371;DHT22;11858;51.056;3.712;2023-08-07T03:01:40;12.70;99.90
23371;DHT22;11858;51.056;3.712;2023-08-07T03:04:05;12.60;99.90
23371;DHT22;11858;51.056;3.712;2023-08-07T03:06:31;12.50;99.90
23371;DHT22;11858;51.056;3.712;2023-08-07T03:08:57;12.40;99.90
23371;DHT22;11858;51.056;3.712;2023-08-07T03:11:23;12.40;99.90
23371;DHT22;11858;51.056;3.712;2023-08-07T03:13:49;12.30;99.90
23371;DHT22;11858;51.056;3.712;2023-08-07T03:16:15;12.30;99.90
23371;DHT22;11858;51.056;3.712;2023-08-07T03:18:40;12.30;99.90
23371;DHT22;11858;51.056;3.712;2023-08-07T03:21:06;12.40;99.90
23371;DHT22;11858;51.056;3.712;2023-08-07T03:23:32;12.30;99.90
23371;DHT22;11858;51.056;3.712;2023-08-07T03:26:09;12.20;99.90
23371;DHT22;11858;51.056;3.712;2023-08-07T03:28:36;12.10;99.90
23371;DHT22;11858;51.056;3.712;2023-08-07T03:31:02;12.00;99.90
23371;DHT22;11858;51.056;3.712;2023-08-07T03:33:28;12.10;99.90
23371;DHT22;11858;51.056;3.712;2023-08-07T03:35:54;12.10;99.90
23371;DHT22;11858;51.056;3.712;2023-08-07T03:38:19;12.20;99.90
23371;DHT22;11858;51.056;3.712;2023-08-07T03:40:45;12.20;99.90
23371;DHT22;11858;51.056;3.712;2023-08-07T03:43:11;12.20;99.90
23371;DHT22;11858;51.056;3.712;2023-08-07T03:45:36;12.20;99.90
23371;DHT22;11858;51.056;3.712;2023-08-07T03:48:02;12.30;99.90
23371;DHT22;11858;51.056;3.712;2023-08-07T03:50:28;12.40;99.90
23371;DHT22;11858;51.056;3.712;2023-08-07T03:52:56;12.40;99.90
23371;DHT22;11858;51.056;3.712;2023-08-07T03:55:21;12.50;99.90
23371;DHT22;11858;51.056;3.712;2023-08-07T03:57:47;12.40;99.90
23371;DHT22;11858;51.056;3.712;2023-08-07T04:00:13;12.20;99.90
23371;DHT22;11858;51.056;3.712;2023-08-07T04:02:39;12.20;99.90
23371;DHT22;11858;51.056;3.712;2023-08-07T04:05:05;12.20;99.90
23371;DHT22;11858;51.056;3.712;2023-08-07T04:07:31;12.20;99.90
23371;DHT22;11858;51.056;3.712;2023-08-07T04:09:56;12.30;99.90
23371;DHT22;11858;51.056;3.712;2023-08-07T04:12:22;12.30;99.90
23371;DHT22;11858;51.056;3.712;2023-08-07T04:14:48;12.20;99.90
23371;DHT22;11858;51.056;3.712;2023-08-07T04:17:13;12.40;99.90
23371;DHT22;11858;51.056;3.712;2023-08-07T04:19:39;12.40;99.90
23371;DHT22;11858;51.056;3.712;2023-08-07T04:22:05;12.40;99.90
23371;DHT22;11858;51.056;3.712;2023-08-07T04:24:31;12.30;99.90
23371;DHT22;11858;51.056;3.712;2023-08-07T04:26:56;12.30;99.90
23371;DHT22;11858;51.056;3.712;2023-08-07T04:29:22;12.30;99.90
23371;DHT22;11858;51.056;3.712;2023-08-07T04:31:47;12.30;99.90
23371;DHT22;11858;51.056;3.712;2023-08-07T04:34:13;12.30;99.90
23371;DHT22;11858;51.056;3.712;2023-08-07T04:36:39;12.30;99.90
23371;DHT22;11858;51.056;3.712;2023-08-07T04:39:05;12.30;99.90
23371;DHT22;11858;51.056;3.712;2023-08-07T04:41:30;12.40;99.90
23371;DHT22;11858;51.056;3.712;2023-08-07T04:43:56;12.50;99.90
23371;DHT22;11858;51.056;3.712;2023-08-07T04:46:22;12.50;99.90
23371;DHT22;11858;51.056;3.712;2023-08-07T04:48:47;12.50;99.90
23371;DHT22;11858;51.056;3.712;2023-08-07T04:51:14;12.50;99.90
23371;DHT22;11858;51.056;3.712;2023-08-07T04:53:40;12.40;99.90
23371;DHT22;11858;51.056;3.712;2023-08-07T04:56:06;12.40;99.90
23371;DHT22;11858;51.056;3.712;2023-08-07T04:58:32;12.60;99.90
23371;DHT22;11858;51.056;3.712;2023-08-07T05:00:58;12.60;99.90
23371;DHT22;11858;51.056;3.712;2023-08-07T05:03:25;12.70;99.90
23371;DHT22;11858;51.056;3.712;2023-08-07T05:05:58;12.70;99.90
23371;DHT22;11858;51.056;3.712;2023-08-07T05:08:30;12.80;99.90
23371;DHT22;11858;51.056;3.712;2023-08-07T05:10:55;12.90;99.90
23371;DHT22;11858;51.056;3.712;2023-08-07T05:13:21;13.00;99.90
23371;DHT22;11858;51.056;3.712;2023-08-07T05:15:47;12.90;99.90
23371;DHT22;11858;51.056;3.712;2023-08-07T05:18:14;12.90;99.90
23371;DHT22;11858;51.056;3.712;2023-08-07T05:20:40;13.00;99.90
23371;DHT22;11858;51.056;3.712;2023-08-07T05:23:05;13.10;99.90
23371;DHT22;11858;51.056;3.712;2023-08-07T05:25:31;13.00;99.90
23371;DHT22;11858;51.056;3.712;2023-08-07T05:27:56;13.00;99.90
23371;DHT22;11858;51.056;3.712;2023-08-07T05:30:22;13.20;99.90
23371;DHT22;11858;51.056;3.712;2023-08-07T05:32:48;13.20;99.90
23371;DHT22;11858;51.056;3.712;2023-08-07T05:35:13;13.20;99.90
23371;DHT22;11858;51.056;3.712;2023-08-07T05:37:39;13.20;99.90
23371;DHT22;11858;51.056;3.712;2023-08-07T05:40:05;13.20;99.90
23371;DHT22;11858;51.056;3.712;2023-08-07T05:42:31;13.40;99.90
23371;DHT22;11858;51.056;3.712;2023-08-07T05:44:58;13.20;99.90
23371;DHT22;11858;51.056;3.712;2023-08-07T05:47:23;13.20;99.90
23371;DHT22;11858;51.056;3.712;2023-08-07T05:49:49;13.20;99.90
23371;DHT22;11858;51.056;3.712;2023-08-07T05:52:14;13.40;99.90
23371;DHT22;11858;51.056;3.712;2023-08-07T05:54:41;13.50;99.90
23371;DHT22;11858;51.056;3.712;2023-08-07T05:57:06;13.50;99.90
23371;DHT22;11858;51.056;3.712;2023-08-07T05:59:32;13.70;99.90
23371;DHT22;11858;51.056;3.712;2023-08-07T06:02:00;13.80;99.90
23371;DHT22;11858;51.056;3.712;2023-08-07T06:04:25;13.80;99.90
23371;DHT22;11858;51.056;3.712;2023-08-07T06:06:51;13.90;99.90
23371;DHT22;11858;51.056;3.712;2023-08-07T06:09:17;14.10;99.90
23371;DHT22;11858;51.056;3.712;2023-08-07T06:11:42;14.00;99.90
23371;DHT22;11858;51.056;3.712;2023-08-07T06:14:08;14.00;99.90
23371;DHT22;11858;51.056;3.712;2023-08-07T06:16:34;14.00;99.90
23371;DHT22;11858;51.056;3.712;2023-08-07T06:19:00;14.10;99.90
23371;DHT22;11858;51.056;3.712;2023-08-07T06:21:25;14.10;99.90
23371;DHT22;11858;51.056;3.712;2023-08-07T06:23:53;14.20;99.90
23371;DHT22;11858;51.056;3.712;2023-08-07T06:26:19;14.30;99.90
23371;DHT22;11858;51.056;3.712;2023-08-07T06:28:45;14.50;99.90
23371;DHT22;11858;51.056;3.712;2023-08-07T06:31:12;14.50;99.90
23371;DHT22;11858;51.056;3.712;2023-08-07T06:33:38;14.50;99.90
23371;DHT22;11858;51.056;3.712;2023-08-07T06:36:04;14.60;99.90
23371;DHT22;11858;51.056;3.712;2023-08-07T06:38:30;14.60;99.90
23371;DHT22;11858;51.056;3.712;2023-08-07T06:40:56;14.70;99.90
23371;DHT22;11858;51.056;3.712;2023-08-07T06:43:22;14.80;99.90
23371;DHT22;11858;51.056;3.712;2023-08-07T06:45:52;14.90;99.90
23371;DHT22;11858;51.056;3.712;2023-08-07T06:48:18;15.00;99.90
23371;DHT22;11858;51.056;3.712;2023-08-07T06:50:45;15.00;99.90
23371;DHT22;11858;51.056;3.712;2023-08-07T06:53:11;15.10;99.90
23371;DHT22;11858;51.056;3.712;2023-08-07T06:55:37;15.20;99.90
23371;DHT22;11858;51.056;3.712;2023-08-07T06:58:02;15.30;99.90
23371;DHT22;11858;51.056;3.712;2023-08-07T07:00:28;15.50;99.90
23371;DHT22;11858;51.056;3.712;2023-08-07T07:02:54;15.60;99.90
23371;DHT22;11858;51.056;3.712;2023-08-07T07:05:19;15.70;99.90
23371;DHT22;11858;51.056;3.712;2023-08-07T07:07:45;15.80;99.90
23371;DHT22;11858;51.056;3.712;2023-08-07T07:10:12;15.90;99.90
23371;DHT22;11858;51.056;3.712;2023-08-07T07:12:37;16.00;99.90
23371;DHT22;11858;51.056;3.712;2023-08-07T07:15:03;16.20;99.90
23371;DHT22;11858;51.056;3.712;2023-08-07T07:17:29;16.20;99.90
23371;DHT22;11858;51.056;3.712;2023-08-07T07:19:55;16.30;99.90
23371;DHT22;11858;51.056;3.712;2023-08-07T07:22:22;16.40;99.90
23371;DHT22;11858;51.056;3.712;2023-08-07T07:24:48;16.50;99.90
23371;DHT22;11858;51.056;3.712;2023-08-07T07:27:13;16.60;99.90
23371;DHT22;11858;51.056;3.712;2023-08-07T07:29:39;16.90;99.90
23371;DHT22;11858;51.056;3.712;2023-08-07T07:32:05;17.00;99.90
23371;DHT22;11858;51.056;3.712;2023-08-07T07:34:31;17.00;99.90
23371;DHT22;11858;51.056;3.712;2023-08-07T07:36:58;17.10;99.90
23371;DHT22;11858;51.056;3.712;2023-08-07T07:39:24;17.20;99.90
23371;DHT22;11858;51.056;3.712;2023-08-07T07:41:49;17.40;99.90
23371;DHT22;11858;51.056;3.712;2023-08-07T07:44:15;17.60;99.90
23371;DHT22;11858;51.056;3.712;2023-08-07T07:46:41;17.70;99.90
23371;DHT22;11858;51.056;3.712;2023-08-07T07:49:06;17.90;99.90
23371;DHT22;11858;51.056;3.712;2023-08-07T07:51:32;18.00;99.90
23371;DHT22;11858;51.056;3.712;2023-08-07T07:53:58;18.30;99.90
23371;DHT22;11858;51.056;3.712;2023-08-07T07:56:24;18.30;99.90
23371;DHT22;11858;51.056;3.712;2023-08-07T07:58:50;18.30;99.90
23371;DHT22;11858;51.056;3.712;2023-08-07T08:01:16;18.50;99.90
23371;DHT22;11858;51.056;3.712;2023-08-07T08:03:43;18.50;99.90
23371;DHT22;11858;51.056;3.712;2023-08-07T08:06:11;18.50;99.90
23371;DHT22;11858;51.056;3.712;2023-08-07T08:08:37;18.70;99.90
23371;DHT22;11858;51.056;3.712;2023-08-07T08:11:03;18.80;99.90
23371;DHT22;11858;51.056;3.712;2023-08-07T08:13:28;19.70;99.90
23371;DHT22;11858;51.056;3.712;2023-08-07T08:15:54;20.90;99.90
23371;DHT22;11858;51.056;3.712;2023-08-07T08:18:19;21.70;99.90
23371;DHT22;11858;51.056;3.712;2023-08-07T08:20:45;22.70;99.90
23371;DHT22;11858;51.056;3.712;2023-08-07T08:23:11;22.60;99.90
23371;DHT22;11858;51.056;3.712;2023-08-07T08:25:36;23.20;99.90
23371;DHT22;11858;51.056;3.712;2023-08-07T08:28:03;23.30;99.90
23371;DHT22;11858;51.056;3.712;2023-08-07T08:30:29;23.40;99.90
23371;DHT22;11858;51.056;3.712;2023-08-07T08:32:54;23.60;99.90
23371;DHT22;11858;51.056;3.712;2023-08-07T08:35:20;24.10;99.90
23371;DHT22;11858;51.056;3.712;2023-08-07T08:37:46;24.70;99.90
23371;DHT22;11858;51.056;3.712;2023-08-07T08:40:12;24.60;99.90
23371;DHT22;11858;51.056;3.712;2023-08-07T08:42:43;24.70;99.90
23371;DHT22;11858;51.056;3.712;2023-08-07T08:45:12;23.50;99.90
23371;DHT22;11858;51.056;3.712;2023-08-07T08:47:39;23.10;99.90
23371;DHT22;11858;51.056;3.712;2023-08-07T08:50:11;23.50;99.90
23371;DHT22;11858;51.056;3.712;2023-08-07T08:52:40;24.20;99.90
23371;DHT22;11858;51.056;3.712;2023-08-07T08:55:06;25.60;99.90
23371;DHT22;11858;51.056;3.712;2023-08-07T08:57:33;25.60;99.90
23371;DHT22;11858;51.056;3.712;2023-08-07T08:59:58;25.20;99.90
23371;DHT22;11858;51.056;3.712;2023-08-07T09:02:25;24.60;99.90
23371;DHT22;11858;51.056;3.712;2023-08-07T09:04:51;23.50;99.90
23371;DHT22;11858;51.056;3.712;2023-08-07T09:07:20;23.40;99.90
23371;DHT22;11858;51.056;3.712;2023-08-07T09:09:46;24.30;99.90
23371;DHT22;11858;51.056;3.712;2023-08-07T09:12:32;24.60;99.90
23371;DHT22;11858;51.056;3.712;2023-08-07T09:15:02;24.20;99.90
23371;DHT22;11858;51.056;3.712;2023-08-07T09:17:32;24.50;99.90
23371;DHT22;11858;51.056;3.712;2023-08-07T09:19:59;25.60;99.90
23371;DHT22;11858;51.056;3.712;2023-08-07T09:22:25;25.80;99.90
23371;DHT22;11858;51.056;3.712;2023-08-07T09:24:50;26.50;99.90
23371;DHT22;11858;51.056;3.712;2023-08-07T09:27:16;27.30;99.90
23371;DHT22;11858;51.056;3.712;2023-08-07T09:29:43;27.80;99.90
23371;DHT22;11858;51.056;3.712;2023-08-07T09:32:12;26.40;99.90
23371;DHT22;11858;51.056;3.712;2023-08-07T09:34:42;26.10;99.90
23371;DHT22;11858;51.056;3.712;2023-08-07T09:37:08;26.20;99.90
23371;DHT22;11858;51.056;3.712;2023-08-07T09:39:35;25.00;99.90
23371;DHT22;11858;51.056;3.712;2023-08-07T09:42:02;23.90;99.90
23371;DHT22;11858;51.056;3.712;2023-08-07T09:44:37;23.80;99.90
23371;DHT22;11858;51.056;3.712;2023-08-07T09:47:13;23.70;99.90
23371;DHT22;11858;51.056;3.712;2023-08-07T09:49:40;25.10;99.90
23371;DHT22;11858;51.056;3.712;2023-08-07T09:52:08;25.70;99.90
23371;DHT22;11858;51.056;3.712;2023-08-07T09:54:34;25.80;99.90
23371;DHT22;11858;51.056;3.712;2023-08-07T09:57:01;26.30;99.90
23371;DHT22;11858;51.056;3.712;2023-08-07T09:59:28;27.30;99.90
23371;DHT22;11858;51.056;3.712;2023-08-07T10:01:55;28.10;99.90
23371;DHT22;11858;51.056;3.712;2023-08-07T10:04:25;27.90;99.90
23371;DHT22;11858;51.056;3.712;2023-08-07T10:06:51;27.50;99.90
23371;DHT22;11858;51.056;3.712;2023-08-07T10:09:18;27.80;99.90
23371;DHT22;11858;51.056;3.712;2023-08-07T10:11:44;27.10;99.90
23371;DHT22;11858;51.056;3.712;2023-08-07T10:14:11;26.40;99.90
23371;DHT22;11858;51.056;3.712;2023-08-07T10:16:39;26.40;99.90
23371;DHT22;11858;51.056;3.712;2023-08-07T10:19:06;26.50;99.90
23371;DHT22;11858;51.056;3.712;2023-08-07T10:21:36;25.90;99.90
23371;DHT22;11858;51.056;3.712;2023-08-07T10:24:06;25.10;99.90
23371;DHT22;11858;51.056;3.712;2023-08-07T10:26:34;24.00;99.90
23371;DHT22;11858;51.056;3.712;2023-08-07T10:29:03;23.80;99.90
23371;DHT22;11858;51.056;3.712;2023-08-07T10:31:30;25.50;99.90
23371;DHT22;11858;51.056;3.712;2023-08-07T10:33:57;26.50;99.90
23371;DHT22;11858;51.056;3.712;2023-08-07T10:36:23;27.60;99.90
23371;DHT22;11858;51.056;3.712;2023-08-07T10:39:10;28.30;99.90
23371;DHT22;11858;51.056;3.712;2023-08-07T10:41:46;28.20;99.90
23371;DHT22;11858;51.056;3.712;2023-08-07T10:44:22;27.40;99.90
23371;DHT22;11858;51.056;3.712;2023-08-07T10:46:57;25.60;99.90
23371;DHT22;11858;51.056;3.712;2023-08-07T10:49:40;24.70;99.90
23371;DHT22;11858;51.056;3.712;2023-08-07T10:52:13;25.50;99.90
23371;DHT22;11858;51.056;3.712;2023-08-07T10:54:48;26.30;99.90
23371;DHT22;11858;51.056;3.712;2023-08-07T10:57:15;26.70;99.90
23371;DHT22;11858;51.056;3.712;2023-08-07T10:59:52;26.30;99.90
23371;DHT22;11858;51.056;3.712;2023-08-07T11:02:30;25.50;99.90
23371;DHT22;11858;51.056;3.712;2023-08-07T11:04:56;24.40;99.90
23371;DHT22;11858;51.056;3.712;2023-08-07T11:07:26;24.40;99.90
23371;DHT22;11858;51.056;3.712;2023-08-07T11:09:53;25.60;99.90
23371;DHT22;11858;51.056;3.712;2023-08-07T11:12:19;26.50;99.90
23371;DHT22;11858;51.056;3.712;2023-08-07T11:14:45;26.50;99.90
23371;DHT22;11858;51.056;3.712;2023-08-07T11:17:11;25.50;99.90
23371;DHT22;11858;51.056;3.712;2023-08-07T11:19:38;26.10;99.90
23371;DHT22;11858;51.056;3.712;2023-08-07T11:22:04;26.50;99.90
23371;DHT22;11858;51.056;3.712;2023-08-07T11:24:29;27.30;99.90
23371;DHT22;11858;51.056;3.712;2023-08-07T11:26:56;27.60;99.90
23371;DHT22;11858;51.056;3.712;2023-08-07T11:29:23;26.60;99.90
23371;DHT22;11858;51.056;3.712;2023-08-07T11:31:51;25.60;99.90
23371;DHT22;11858;51.056;3.712;2023-08-07T11:34:20;24.60;99.90
23371;DHT22;11858;51.056;3.712;2023-08-07T11:36:46;23.90;99.90
23371;DHT22;11858;51.056;3.712;2023-08-07T11:39:13;23.90;99.90
23371;DHT22;11858;51.056;3.712;2023-08-07T11:41:39;25.10;99.90
23371;DHT22;11858;51.056;3.712;2023-08-07T11:44:07;25.80;99.90
23371;DHT22;11858;51.056;3.712;2023-08-07T11:46:33;26.50;99.90
23371;DHT22;11858;51.056;3.712;2023-08-07T11:48:59;27.40;99.90
23371;DHT22;11858;51.056;3.712;2023-08-07T11:51:25;27.70;99.90
23371;DHT22;11858;51.056;3.712;2023-08-07T11:53:50;27.90;99.90
23371;DHT22;11858;51.056;3.712;2023-08-07T11:56:22;27.70;99.90
23371;DHT22;11858;51.056;3.712;2023-08-07T11:58:48;26.60;99.90
23371;DHT22;11858;51.056;3.712;2023-08-07T12:01:19;26.90;99.90
23371;DHT22;11858;51.056;3.712;2023-08-07T12:03:57;28.00;99.90
23371;DHT22;11858;51.056;3.712;2023-08-07T12:06:24;27.80;99.90
23371;DHT22;11858;51.056;3.712;2023-08-07T12:08:54;27.60;99.90
23371;DHT22;11858;51.056;3.712;2023-08-07T12:11:20;27.10;99.90
23371;DHT22;11858;51.056;3.712;2023-08-07T12:13:49;26.90;99.90
23371;DHT22;11858;51.056;3.712;2023-08-07T12:16:16;26.20;99.90
23371;DHT22;11858;51.056;3.712;2023-08-07T12:18:45;25.20;99.90
23371;DHT22;11858;51.056;3.712;2023-08-07T12:21:22;25.50;99.90
23371;DHT22;11858;51.056;3.712;2023-08-07T12:23:50;26.60;99.90
23371;DHT22;11858;51.056;3.712;2023-08-07T12:26:17;27.40;99.90
23371;DHT22;11858;51.056;3.712;2023-08-07T12:28:43;26.80;99.90
23371;DHT22;11858;51.056;3.712;2023-08-07T12:31:09;25.80;99.90
23371;DHT22;11858;51.056;3.712;2023-08-07T12:33:34;25.10;99.90
23371;DHT22;11858;51.056;3.712;2023-08-07T12:36:01;24.60;99.90
23371;DHT22;11858;51.056;3.712;2023-08-07T12:38:27;24.00;99.90
23371;DHT22;11858;51.056;3.712;2023-08-07T12:40:53;23.70;99.90
23371;DHT22;11858;51.056;3.712;2023-08-07T12:43:19;23.70;99.90
23371;DHT22;11858;51.056;3.712;2023-08-07T12:45:45;24.00;99.90
23371;DHT22;11858;51.056;3.712;2023-08-07T12:48:11;24.00;99.90
23371;DHT22;11858;51.056;3.712;2023-08-07T12:50:37;23.50;99.90
23371;DHT22;11858;51.056;3.712;2023-08-07T12:53:03;24.20;99.90
23371;DHT22;11858;51.056;3.712;2023-08-07T12:55:29;25.50;99.90
23371;DHT22;11858;51.056;3.712;2023-08-07T12:57:55;25.40;99.90
23371;DHT22;11858;51.056;3.712;2023-08-07T13:00:21;25.00;99.90
23371;DHT22;11858;51.056;3.712;2023-08-07T13:02:49;24.60;99.90
23371;DHT22;11858;51.056;3.712;2023-08-07T13:05:15;25.30;99.90
23371;DHT22;11858;51.056;3.712;2023-08-07T13:07:43;25.50;99.90
23371;DHT22;11858;51.056;3.712;2023-08-07T13:10:11;25.70;99.90
23371;DHT22;11858;51.056;3.712;2023-08-07T13:12:39;26.10;99.90
23371;DHT22;11858;51.056;3.712;2023-08-07T13:15:07;25.70;99.90
23371;DHT22;11858;51.056;3.712;2023-08-07T13:17:37;25.50;99.90
23371;DHT22;11858;51.056;3.712;2023-08-07T13:20:04;26.30;99.90
23371;DHT22;11858;51.056;3.712;2023-08-07T13:22:43;25.90;99.90
23371;DHT22;11858;51.056;3.712;2023-08-07T13:25:11;25.10;99.90
23371;DHT22;11858;51.056;3.712;2023-08-07T13:27:38;24.10;99.90
23371;DHT22;11858;51.056;3.712;2023-08-07T13:30:05;24.00;99.90
23371;DHT22;11858;51.056;3.712;2023-08-07T13:32:31;24.80;99.90
23371;DHT22;11858;51.056;3.712;2023-08-07T13:34:57;25.90;99.90
23371;DHT22;11858;51.056;3.712;2023-08-07T13:37:23;27.20;99.90
23371;DHT22;11858;51.056;3.712;2023-08-07T13:39:49;27.80;99.90
23371;DHT22;11858;51.056;3.712;2023-08-07T13:42:17;28.20;99.90
23371;DHT22;11858;51.056;3.712;2023-08-07T13:44:43;28.50;99.90
23371;DHT22;11858;51.056;3.712;2023-08-07T13:47:09;28.10;99.90
23371;DHT22;11858;51.056;3.712;2023-08-07T13:49:37;27.50;99.90
23371;DHT22;11858;51.056;3.712;2023-08-07T13:52:03;26.50;99.90
23371;DHT22;11858;51.056;3.712;2023-08-07T13:54:29;25.90;99.90
23371;DHT22;11858;51.056;3.712;2023-08-07T13:56:55;26.30;99.90
23371;DHT22;11858;51.056;3.712;2023-08-07T13:59:20;27.00;99.90
23371;DHT22;11858;51.056;3.712;2023-08-07T14:01:46;27.20;99.90
23371;DHT22;11858;51.056;3.712;2023-08-07T14:04:12;27.90;99.90
23371;DHT22;11858;51.056;3.712;2023-08-07T14:06:39;28.20;99.90
23371;DHT22;11858;51.056;3.712;2023-08-07T14:09:06;28.20;99.90
23371;DHT22;11858;51.056;3.712;2023-08-07T14:11:32;28.20;99.90
23371;DHT22;11858;51.056;3.712;2023-08-07T14:13:57;27.30;99.90
23371;DHT22;11858;51.056;3.712;2023-08-07T14:16:24;27.50;99.90
23371;DHT22;11858;51.056;3.712;2023-08-07T14:18:50;26.80;99.90
23371;DHT22;11858;51.056;3.712;2023-08-07T14:21:16;26.60;99.90
23371;DHT22;11858;51.056;3.712;2023-08-07T14:23:41;26.30;99.90
23371;DHT22;11858;51.056;3.712;2023-08-07T14:26:15;26.20;99.90
23371;DHT22;11858;51.056;3.712;2023-08-07T14:28:41;26.10;99.90
23371;DHT22;11858;51.056;3.712;2023-08-07T14:31:08;26.80;99.90
23371;DHT22;11858;51.056;3.712;2023-08-07T14:33:34;27.10;99.90
23371;DHT22;11858;51.056;3.712;2023-08-07T14:35:59;28.10;99.90
23371;DHT22;11858;51.056;3.712;2023-08-07T14:38:26;28.10;99.90
23371;DHT22;11858;51.056;3.712;2023-08-07T14:40:51;28.00;99.90
23371;DHT22;11858;51.056;3.712;2023-08-07T14:43:17;28.00;99.90
23371;DHT22;11858;51.056;3.712;2023-08-07T14:45:43;27.70;99.90
23371;DHT22;11858;51.056;3.712;2023-08-07T14:48:08;27.10;99.90
23371;DHT22;11858;51.056;3.712;2023-08-07T14:50:34;26.20;99.90
23371;DHT22;11858;51.056;3.712;2023-08-07T14:53:00;26.00;99.90
23371;DHT22;11858;51.056;3.712;2023-08-07T14:55:25;26.10;99.90
23371;DHT22;11858;51.056;3.712;2023-08-07T14:57:51;26.00;99.90
23371;DHT22;11858;51.056;3.712;2023-08-07T15:00:17;26.00;99.90
23371;DHT22;11858;51.056;3.712;2023-08-07T15:02:43;26.50;99.90
23371;DHT22;11858;51.056;3.712;2023-08-07T15:05:09;26.80;99.90
23371;DHT22;11858;51.056;3.712;2023-08-07T15:07:35;26.80;99.90
23371;DHT22;11858;51.056;3.712;2023-08-07T15:10:00;27.30;99.90
23371;DHT22;11858;51.056;3.712;2023-08-07T15:12:26;27.40;99.90
23371;DHT22;11858;51.056;3.712;2023-08-07T15:14:52;27.50;99.90
23371;DHT22;11858;51.056;3.712;2023-08-07T15:17:17;27.10;99.90
23371;DHT22;11858;51.056;3.712;2023-08-07T15:19:43;26.40;99.90
23371;DHT22;11858;51.056;3.712;2023-08-07T15:22:09;25.50;99.90
23371;DHT22;11858;51.056;3.712;2023-08-07T15:24:34;25.70;99.90
23371;DHT22;11858;51.056;3.712;2023-08-07T15:27:00;26.40;99.90